createdAt,value
2023-02-19T00:01:47.141Z,99.90
2023-02-19T00:04:17.659Z,99.90
2023-02-19T00:06:46.090Z,99.90
2023-02-19T00:09:14.840Z,99.90
2023-02-19T00:11:42.405Z,99.90
2023-02-19T00:14:14.561Z,99.90
2023-02-19T00:16:41.732Z,99.90
2023-02-19T00:19:15.426Z,99.90
2023-02-19T00:21:42.637Z,99.90
2023-02-19T00:24:12.664Z,99.90
2023-02-19T00:26:45.692Z,99.90
2023-02-19T00:29:17.475Z,99.90
2023-02-19T00:31:45.984Z,99.90
2023-02-19T00:34:14.081Z,99.90
2023-02-19T00:36:43.292Z,99.90
2023-02-19T00:39:15.929Z,99.90
2023-02-19T00:41:44.528Z,99.90
2023-02-19T00:44:13.394Z,99.90
2023-02-19T00:46:42.969Z,99.90
2023-02-19T00:49:17.353Z,99.90
2023-02-19T00:51:44.482Z,99.90
2023-02-19T00:54:12.863Z,99.90
2023-02-19T00:56:40.672Z,99.90
2023-02-19T00:59:07.662Z,99.90
2023-02-19T01:01:34.694Z,99.90
2023-02-19T01:04:01.618Z,99.90
2023-02-19T01:06:30.836Z,99.90
2023-02-19T01:08:59.301Z,99.90
2023-02-19T01:11:27.487Z,99.90
2023-02-19T01:13:58.519Z,99.90
2023-02-19T01:16:25.619Z,99.90
2023-02-19T01:18:53.117Z,99.90
2023-02-19T01:21:23.061Z,99.90
2023-02-19T01:23:51.318Z,99.90
2023-02-19T01:26:20.611Z,99.90
2023-02-19T01:28:48.559Z,99.90
2023-02-19T01:31:19.456Z,99.90
2023-02-19T01:33:48.249Z,99.90
2023-02-19T01:36:16.038Z,99.90
2023-02-19T01:38:43.430Z,99.90
2023-02-19T01:41:16.011Z,99.90
2023-02-19T01:43:56.289Z,99.90
2023-02-19T01:46:32.733Z,99.90
2023-02-19T01:49:02.416Z,99.90
2023-02-19T01:51:31.606Z,99.90
2023-02-19T01:54:02.591Z,99.90
2023-02-19T01:56:32.072Z,99.90
2023-02-19T01:59:00.311Z,99.90
2023-02-19T02:01:27.389Z,99.90
2023-02-19T02:03:54.527Z,99.90
2023-02-19T02:06:29.798Z,99.90
2023-02-19T02:09:17.117Z,99.90
2023-02-19T02:11:51.891Z,99.90
2023-02-19T02:14:23.363Z,99.90
2023-02-19T02:17:29.017Z,99.90
2023-02-19T02:20:04.520Z,99.90
2023-02-19T02:23:15.264Z,99.90
2023-02-19T02:26:02.186Z,99.90
2023-02-19T02:28:40.992Z,99.90
2023-02-19T02:31:18.502Z,99.90
2023-02-19T02:33:53.414Z,99.90
2023-02-19T02:36:38.539Z,99.90
2023-02-19T02:42:56.589Z,99.90
2023-02-19T02:45:36.801Z,99.90
2023-02-19T02:48:26.864Z,99.90
2023-02-19T02:51:14.969Z,99.90
2023-02-19T02:54:25.883Z,99.90
2023-02-19T02:56:54.576Z,99.90
2023-02-19T02:59:25.875Z,99.90
2023-02-19T03:02:14.219Z,99.90
2023-02-19T03:05:31.060Z,99.90
2023-02-19T03:08:09.939Z,99.90
2023-02-19T03:10:43.171Z,99.90
2023-02-19T03:13:43.814Z,99.90
2023-02-19T03:16:36.852Z,99.90
2023-02-19T03:19:20.998Z,99.90
2023-02-19T03:21:55.146Z,99.90
2023-02-19T03:24:46.889Z,99.90
2023-02-19T03:27:16.510Z,99.90
2023-02-19T03:29:45.866Z,99.90
2023-02-19T03:32:18.946Z,99.90
2023-02-19T03:34:56.637Z,99.90
2023-02-19T03:37:37.771Z,99.90
2023-02-19T03:40:04.944Z,99.90
2023-02-19T03:42:32.049Z,99.90
2023-02-19T03:45:20.099Z,99.90
2023-02-19T03:48:28.660Z,99.90
2023-02-19T03:51:23.406Z,99.90
2023-02-19T03:53:53.209Z,99.90
2023-02-19T03:56:50.037Z,99.90
2023-02-19T03:59:27.966Z,99.90
2023-02-19T04:02:00.649Z,99.90
2023-02-19T04:04:44.239Z,99.90
2023-02-19T04:07:11.473Z,99.90
2023-02-19T04:09:43.308Z,99.90
2023-02-19T04:12:13.030Z,99.90
2023-02-19T04:14:48.639Z,99.90
2023-02-19T04:17:24.655Z,99.90
2023-02-19T04:19:53.365Z,99.90
2023-02-19T04:22:22.553Z,99.90
2023-02-19T04:24:52.300Z,99.90
2023-02-19T04:27:19.428Z,99.90
2023-02-19T04:29:46.595Z,99.90
2023-02-19T04:32:14.245Z,99.90
2023-02-19T04:34:41.143Z,99.90
2023-02-19T04:37:08.028Z,99.90
2023-02-19T04:39:34.968Z,99.90
2023-02-19T04:42:02.200Z,99.90
2023-02-19T04:44:29.060Z,99.90
2023-02-19T04:46:56.064Z,99.90
2023-02-19T04:49:23.113Z,99.90
2023-02-19T04:51:49.811Z,99.90
2023-02-19T04:54:16.752Z,99.90
2023-02-19T04:56:43.587Z,99.90
2023-02-19T04:59:10.360Z,99.90
2023-02-19T05:01:37.183Z,99.90
2023-02-19T05:04:04.999Z,99.90
2023-02-19T05:06:31.991Z,99.90
2023-02-19T05:08:58.886Z,99.90
2023-02-19T05:11:25.905Z,99.90
2023-02-19T05:13:52.906Z,99.90
2023-02-19T05:16:21.621Z,99.90
2023-02-19T05:18:48.402Z,99.90
2023-02-19T05:21:15.691Z,99.90
2023-02-19T05:23:43.049Z,99.90
2023-02-19T05:26:18.688Z,99.90
2023-02-19T05:28:47.065Z,99.90
2023-02-19T05:31:14.887Z,99.90
2023-02-19T05:33:43.272Z,99.90
2023-02-19T05:36:14.118Z,99.90
2023-02-19T05:38:41.755Z,99.90
2023-02-19T05:41:18.423Z,99.90
2023-02-19T05:43:46.991Z,99.90
2023-02-19T05:46:16.050Z,99.90
2023-02-19T05:48:43.385Z,99.90
2023-02-19T05:51:15.742Z,99.90
2023-02-19T05:53:43.414Z,99.90
2023-02-19T05:56:34.403Z,99.90
2023-02-19T05:59:07.951Z,99.90
2023-02-19T06:01:35.794Z,99.90
2023-02-19T06:04:02.737Z,99.90
2023-02-19T06:06:29.833Z,99.90
2023-02-19T06:08:56.975Z,99.90
2023-02-19T06:11:24.846Z,99.90
2023-02-19T06:13:52.100Z,99.90
2023-02-19T06:16:19.405Z,99.90
2023-02-19T06:18:46.526Z,99.90
2023-02-19T06:21:14.230Z,99.90
2023-02-19T06:23:42.006Z,99.90
2023-02-19T06:26:17.721Z,99.90
2023-02-19T06:28:45.368Z,99.90
2023-02-19T06:31:12.644Z,99.90
2023-02-19T06:33:40.739Z,99.90
2023-02-19T06:36:11.882Z,99.90
2023-02-19T06:38:38.912Z,99.90
2023-02-19T06:41:07.254Z,99.90
2023-02-19T06:43:34.830Z,99.90
2023-02-19T06:46:03.930Z,99.90
2023-02-19T06:48:31.984Z,99.90
2023-02-19T06:50:59.037Z,99.90
2023-02-19T06:53:26.772Z,99.90
2023-02-19T06:55:58.384Z,99.90
2023-02-19T06:58:25.755Z,99.90
2023-02-19T07:00:53.370Z,99.90
2023-02-19T07:03:20.751Z,99.90
2023-02-19T07:05:48.189Z,99.90
2023-02-19T07:08:17.290Z,99.90
2023-02-19T07:10:54.526Z,99.90
2023-02-19T07:13:21.506Z,99.90
2023-02-19T07:15:48.892Z,99.90
2023-02-19T07:18:17.015Z,99.90
2023-02-19T07:20:43.943Z,99.90
2023-02-19T07:23:14.276Z,99.90
2023-02-19T07:28:33.838Z,99.90
2023-02-19T07:31:02.130Z,99.90
2023-02-19T07:33:29.110Z,99.90
2023-02-19T07:35:56.051Z,99.90
2023-02-19T07:38:25.043Z,99.90
2023-02-19T07:40:53.544Z,99.90
2023-02-19T08:00:00.542Z,99.90
2023-02-19T08:02:48.430Z,99.90
2023-02-19T08:05:15.467Z,99.90
2023-02-19T08:07:42.257Z,99.90
2023-02-19T08:10:27.959Z,99.90
2023-02-19T08:16:59.537Z,99.90
2023-02-19T08:19:26.555Z,99.90
2023-02-19T08:21:53.724Z,99.90
2023-02-19T08:24:20.758Z,99.90
2023-02-19T08:26:47.535Z,99.90
2023-02-19T08:29:14.413Z,99.90
2023-02-19T08:31:41.903Z,99.90
2023-02-19T08:34:09.014Z,99.90
2023-02-19T08:36:35.830Z,99.90
2023-02-19T08:39:02.685Z,99.90
2023-02-19T08:41:29.499Z,99.90
2023-02-19T08:43:57.069Z,99.90
2023-02-19T08:46:24.129Z,99.90
2023-02-19T08:48:51.155Z,99.90
2023-02-19T08:51:18.088Z,99.90
2023-02-19T08:53:46.013Z,99.90
2023-02-19T08:56:15.645Z,99.90
2023-02-19T08:58:43.028Z,99.90
2023-02-19T09:01:12.319Z,99.90
2023-02-19T09:03:40.204Z,99.90
2023-02-19T09:06:07.456Z,99.90
2023-02-19T09:08:34.470Z,99.90
2023-02-19T09:11:03.532Z,99.90
2023-02-19T09:13:30.756Z,99.90
2023-02-19T09:15:57.667Z,99.90
2023-02-19T09:18:25.758Z,99.90
2023-02-19T09:20:52.660Z,99.90
2023-02-19T09:23:19.711Z,99.90
2023-02-19T09:25:49.343Z,99.90
2023-02-19T09:28:16.958Z,99.90
2023-02-19T09:30:43.847Z,99.90
2023-02-19T09:33:10.778Z,99.90
2023-02-19T09:35:40.247Z,99.90
2023-02-19T09:38:07.487Z,99.90
2023-02-19T09:40:37.179Z,99.90
2023-02-19T09:43:15.441Z,99.90
2023-02-19T09:45:42.640Z,99.90
2023-02-19T09:48:10.815Z,99.90
2023-02-19T09:50:45.638Z,99.90
2023-02-19T09:53:27.287Z,99.90
2023-02-19T09:55:54.654Z,99.90
2023-02-19T09:58:50.191Z,99.90
2023-02-19T10:01:17.911Z,99.90
2023-02-19T10:03:47.447Z,99.90
2023-02-19T10:06:23.500Z,99.90
2023-02-19T10:08:53.455Z,99.90
2023-02-19T10:11:20.419Z,99.90
2023-02-19T10:13:58.358Z,99.90
2023-02-19T10:16:27.292Z,99.90
2023-02-19T10:18:54.397Z,99.90
2023-02-19T10:21:27.390Z,99.90
2023-02-19T10:23:57.804Z,99.90
2023-02-19T10:26:24.867Z,99.90
2023-02-19T10:28:54.197Z,99.90
2023-02-19T10:31:26.041Z,99.90
2023-02-19T10:33:55.908Z,99.90
2023-02-19T10:36:40.118Z,99.90
2023-02-19T10:39:22.510Z,99.90
2023-02-19T10:41:56.036Z,99.90
2023-02-19T10:44:27.436Z,99.90
2023-02-19T10:46:57.442Z,99.90
2023-02-19T10:49:31.720Z,99.90
2023-02-19T10:52:02.845Z,99.90
2023-02-19T10:54:33.071Z,99.90
2023-02-19T10:57:15.151Z,99.90
2023-02-19T11:00:04.210Z,99.90
2023-02-19T11:02:31.919Z,99.90
2023-02-19T11:05:16.752Z,99.90
2023-02-19T11:07:45.203Z,99.90
2023-02-19T11:10:40.610Z,99.90
2023-02-19T11:13:15.834Z,99.90
2023-02-19T11:15:43.895Z,99.90
2023-02-19T11:18:14.165Z,99.90
2023-02-19T11:20:54.637Z,99.90
2023-02-19T11:23:36.975Z,99.90
2023-02-19T11:26:07.192Z,99.80
2023-02-19T11:28:41.580Z,99.30
2023-02-19T11:31:25.298Z,97.90
2023-02-19T11:33:55.435Z,96.70
2023-02-19T11:36:30.290Z,95.90
2023-02-19T11:38:59.620Z,95.30
2023-02-19T11:41:57.606Z,95.60
2023-02-19T11:44:42.792Z,95.70
2023-02-19T11:47:37.536Z,96.10
2023-02-19T11:50:16.396Z,96.80
2023-02-19T11:53:11.489Z,97.30
2023-02-19T11:55:47.228Z,97.60
2023-02-19T11:58:33.226Z,97.90
2023-02-19T12:01:26.571Z,98.70
2023-02-19T12:03:53.409Z,99.00
2023-02-19T12:06:26.246Z,99.00
2023-02-19T12:08:59.068Z,98.60
2023-02-19T12:11:44.619Z,98.70
2023-02-19T12:14:42.184Z,99.10
2023-02-19T12:17:14.480Z,97.90
2023-02-19T12:20:13.318Z,98.20
2023-02-19T12:22:48.402Z,97.50
2023-02-19T12:25:27.762Z,96.90
2023-02-19T12:28:23.395Z,95.60
2023-02-19T12:30:56.214Z,96.00
2023-02-19T12:33:39.053Z,96.00
2023-02-19T12:36:09.195Z,96.00
2023-02-19T12:39:00.569Z,95.50
2023-02-19T12:41:43.116Z,95.00
2023-02-19T12:44:19.949Z,94.10
2023-02-19T12:46:53.980Z,92.80
2023-02-19T12:49:45.721Z,92.80
2023-02-19T12:52:25.922Z,92.20
2023-02-19T12:54:56.423Z,92.10
2023-02-19T12:57:34.042Z,92.40
2023-02-19T13:00:23.584Z,92.60
2023-02-19T13:02:59.896Z,93.20
2023-02-19T13:05:53.777Z,93.10
2023-02-19T13:08:33.725Z,93.20
2023-02-19T13:11:21.619Z,92.70
2023-02-19T13:13:59.789Z,92.50
2023-02-19T13:16:33.155Z,92.90
2023-02-19T13:19:02.504Z,93.30
2023-02-19T13:21:52.149Z,93.40
2023-02-19T13:24:28.750Z,94.20
2023-02-19T13:27:17.516Z,94.60
2023-02-19T13:30:15.602Z,95.00
2023-02-19T13:32:58.901Z,94.80
2023-02-19T13:35:40.437Z,95.30
2023-02-19T13:38:12.053Z,95.90
2023-02-19T13:40:52.697Z,95.60
2023-02-19T13:43:28.731Z,95.50
2023-02-19T13:45:59.190Z,94.50
2023-02-19T13:48:36.431Z,93.60
2023-02-19T13:51:24.535Z,92.60
2023-02-19T13:53:58.459Z,92.50
2023-02-19T13:56:31.641Z,93.40
2023-02-19T13:59:22.136Z,93.60
2023-02-19T14:01:51.913Z,94.20
2023-02-19T14:04:44.055Z,95.10
2023-02-19T14:07:10.897Z,97.50
2023-02-19T14:09:37.948Z,98.60
2023-02-19T14:12:15.044Z,98.30
2023-02-19T14:14:51.962Z,98.60
2023-02-19T20:34:23.580Z,99.90
2023-02-19T20:36:50.574Z,99.90
2023-02-19T20:39:18.870Z,99.90
2023-02-19T20:41:47.323Z,99.90
2023-02-19T20:44:14.625Z,99.90
2023-02-19T20:46:46.507Z,99.90
2023-02-19T20:49:15.146Z,99.90
2023-02-19T20:51:50.240Z,99.90
2023-02-19T20:54:18.299Z,99.90
2023-02-19T20:56:46.599Z,99.90
2023-02-19T20:59:15.343Z,99.90
2023-02-19T21:01:42.311Z,99.90
2023-02-19T21:04:09.504Z,99.90
2023-02-19T21:06:36.942Z,99.90
2023-02-19T21:09:04.526Z,99.90
2023-02-19T21:11:32.128Z,99.90
2023-02-19T21:13:59.575Z,99.90
2023-02-19T21:16:28.877Z,99.90
2023-02-19T21:18:56.934Z,99.90
2023-02-19T21:21:26.309Z,99.90
2023-02-19T21:23:54.972Z,99.90
2023-02-19T21:26:22.442Z,99.90
2023-02-19T21:28:53.233Z,99.90
2023-02-19T21:31:22.035Z,99.90
2023-02-19T21:33:51.134Z,99.90
2023-02-19T21:36:18.737Z,99.90
2023-02-19T21:38:46.075Z,99.90
2023-02-19T21:41:12.997Z,99.90
2023-02-19T21:43:39.893Z,99.90
2023-02-19T21:46:06.790Z,99.90
2023-02-19T21:48:33.840Z,99.90
2023-02-19T21:51:00.973Z,99.90
2023-02-19T21:53:28.090Z,99.90
2023-02-19T21:55:58.790Z,99.90
2023-02-19T21:58:28.135Z,99.90
2023-02-19T22:00:56.333Z,99.90
2023-02-19T22:03:24.049Z,99.90
2023-02-19T22:05:50.938Z,99.90
2023-02-19T22:08:17.810Z,99.90
2023-02-19T22:10:45.366Z,99.90
2023-02-19T22:13:12.469Z,99.90
2023-02-19T22:15:39.381Z,99.90
2023-02-19T22:18:06.421Z,99.90
2023-02-19T22:20:34.835Z,99.90
2023-02-19T22:23:02.804Z,99.90
2023-02-19T22:25:29.761Z,99.90
2023-02-19T22:27:57.615Z,99.90
2023-02-19T22:30:25.884Z,99.90
2023-02-19T22:32:53.128Z,99.90
2023-02-19T22:35:20.253Z,99.90
2023-02-19T22:37:47.282Z,99.90
2023-02-19T22:40:14.297Z,99.90
2023-02-19T22:42:41.142Z,99.90
2023-02-19T22:45:10.509Z,99.90
2023-02-19T22:47:38.341Z,99.90
2023-02-19T22:50:07.248Z,99.90
2023-02-19T22:52:34.390Z,99.90
2023-02-19T22:55:01.301Z,99.90
2023-02-19T22:57:28.820Z,99.90
2023-02-19T22:59:55.769Z,99.90
2023-02-19T23:02:22.824Z,99.90
2023-02-19T23:04:50.208Z,99.90
2023-02-19T23:07:17.145Z,99.90
2023-02-19T23:34:32.639Z,99.90
2023-02-19T23:37:00.212Z,99.90
2023-02-19T23:39:27.211Z,99.90
2023-02-19T23:41:56.192Z,99.90
2023-02-19T23:44:25.399Z,99.90
2023-02-19T23:46:53.195Z,99.90
2023-02-19T23:49:20.990Z,99.90
2023-02-19T23:51:48.308Z,99.90
2023-02-19T23:54:15.458Z,99.90
2023-02-19T23:56:42.636Z,99.90
2023-02-19T23:59:10.106Z,99.90
